createdAt,value
2018-06-20T00:00:40.145Z,99041.16
2018-06-20T00:03:08.767Z,99037.55
2018-06-20T00:05:37.656Z,99038.41
2018-06-20T00:08:06.356Z,99034.49
2018-06-20T00:10:35.074Z,99034.88
2018-06-20T00:13:03.965Z,99037.73
2018-06-20T00:15:39.315Z,99040.87
2018-06-20T00:18:08.022Z,99038.38
2018-06-20T00:20:36.904Z,99033.70
2018-06-20T00:23:05.720Z,99032.10
2018-06-20T00:25:34.512Z,99033.02
2018-06-20T00:28:03.318Z,99033.56
2018-06-20T00:30:32.023Z,99033.61
2018-06-20T00:33:00.814Z,99033.27
2018-06-20T00:35:29.630Z,99035.98
2018-06-20T00:37:58.533Z,99031.64
2018-06-20T00:40:27.262Z,99029.53
2018-06-20T00:42:56.199Z,99021.28
2018-06-20T00:45:24.870Z,99017.07
2018-06-20T00:47:53.581Z,99014.14
2018-06-20T00:50:22.300Z,99017.80
2018-06-20T00:52:51.087Z,99023.65
2018-06-20T00:56:28.426Z,99021.11
2018-06-20T00:58:57.185Z,99025.58
2018-06-20T01:01:26.280Z,99023.42
2018-06-20T01:03:55.386Z,99026.17
2018-06-20T01:12:14.574Z,99031.44
2018-06-20T01:14:43.008Z,99027.66
2018-06-20T01:17:11.466Z,99028.59
2018-06-20T01:19:39.870Z,99024.84
2018-06-20T01:22:08.213Z,99021.75
2018-06-20T01:24:36.574Z,99024.49
2018-06-20T01:27:04.970Z,99023.72
2018-06-20T01:29:33.355Z,99020.78
2018-06-20T01:32:01.665Z,99020.70
2018-06-20T01:34:30.089Z,99019.38
2018-06-20T01:36:58.428Z,99020.31
2018-06-20T01:39:26.778Z,99018.55
2018-06-20T01:41:55.229Z,99022.75
2018-06-20T01:44:23.679Z,99013.43
2018-06-20T01:46:52.101Z,99013.98
2018-06-20T01:49:20.488Z,99012.30
2018-06-20T01:51:48.966Z,99009.17
2018-06-20T01:54:17.514Z,99011.09
2018-06-20T01:56:45.831Z,99008.47
2018-06-20T01:59:14.210Z,99004.56
2018-06-20T02:01:42.693Z,99006.01
2018-06-20T02:04:11.060Z,99005.58
2018-06-20T02:06:39.390Z,99006.12
2018-06-20T02:09:08.401Z,99004.88
2018-06-20T02:11:36.827Z,99009.30
2018-06-20T02:14:05.225Z,99007.77
2018-06-20T02:16:33.605Z,99004.09
2018-06-20T02:19:02.034Z,99009.72
2018-06-20T02:21:30.605Z,99009.52
2018-06-20T02:23:59.000Z,99007.17
2018-06-20T02:26:27.377Z,99007.40
2018-06-20T02:28:55.737Z,99012.05
2018-06-20T02:31:24.084Z,99010.00
2018-06-20T02:33:52.537Z,99013.23
2018-06-20T02:36:26.011Z,99016.55
2018-06-20T02:38:54.365Z,99008.66
2018-06-20T02:41:22.754Z,99010.23
2018-06-20T02:43:51.163Z,99009.77
2018-06-20T02:46:19.457Z,99009.12
2018-06-20T02:48:47.912Z,99007.73
2018-06-20T02:51:16.262Z,99005.59
2018-06-20T02:53:44.562Z,99002.20
2018-06-20T02:56:12.987Z,98996.77
2018-06-20T02:58:41.347Z,98993.15
2018-06-20T03:01:09.732Z,98990.35
2018-06-20T03:03:38.480Z,98987.34
2018-06-20T03:06:07.355Z,98991.31
2018-06-20T03:08:35.884Z,98993.09
2018-06-20T03:11:04.372Z,98986.91
2018-06-20T03:13:32.847Z,98990.39
2018-06-20T03:16:01.199Z,98988.89
2018-06-20T03:18:29.629Z,98986.24
2018-06-20T03:20:58.036Z,98981.81
2018-06-20T03:23:26.478Z,98984.10
2018-06-20T03:25:54.907Z,98985.58
2018-06-20T03:28:23.308Z,98991.64
2018-06-20T03:30:51.678Z,98986.31
2018-06-20T03:33:20.074Z,98984.77
2018-06-20T03:35:48.409Z,98986.22
2018-06-20T03:38:16.750Z,98983.42
2018-06-20T03:40:45.150Z,98986.17
2018-06-20T03:43:13.456Z,98982.44
2018-06-20T03:45:41.783Z,98982.38
2018-06-20T03:48:10.259Z,98984.36
2018-06-20T03:50:38.671Z,98983.45
2018-06-20T03:53:07.109Z,98979.03
2018-06-20T03:55:35.502Z,98978.54
2018-06-20T03:58:03.975Z,98979.14
2018-06-20T04:00:32.495Z,98977.36
2018-06-20T04:03:00.863Z,98984.44
2018-06-20T04:05:30.672Z,98977.99
2018-06-20T04:07:59.612Z,98981.50
2018-06-20T04:10:28.063Z,98980.34
2018-06-20T04:12:56.402Z,98976.69
2018-06-20T04:15:24.929Z,98982.85
2018-06-20T04:17:53.326Z,98978.09
2018-06-20T04:20:21.634Z,98974.38
2018-06-20T04:22:49.977Z,98974.45
2018-06-20T04:25:18.381Z,98974.06
2018-06-20T04:27:46.782Z,98969.73
2018-06-20T04:30:15.097Z,98970.27
2018-06-20T04:32:43.464Z,98968.89
2018-06-20T04:35:11.844Z,98964.61
2018-06-20T04:37:40.196Z,98970.48
2018-06-20T04:40:08.773Z,98969.28
2018-06-20T04:42:37.397Z,98967.45
2018-06-20T04:45:06.160Z,98968.79
2018-06-20T04:47:34.513Z,98968.73
2018-06-20T04:50:03.069Z,98965.33
2018-06-20T04:52:31.447Z,98959.44
2018-06-20T04:54:59.834Z,98971.27
2018-06-20T04:57:28.214Z,98967.87
2018-06-20T04:59:56.635Z,98970.19
2018-06-20T05:02:24.986Z,98974.52
2018-06-20T05:04:53.356Z,98966.47
2018-06-20T05:07:21.657Z,98967.23
2018-06-20T05:09:50.008Z,98961.20
2018-06-20T05:12:18.384Z,98966.75
2018-06-20T05:14:46.699Z,98970.23
2018-06-20T05:17:15.009Z,98961.20
2018-06-20T05:19:43.348Z,98966.20
2018-06-20T05:22:11.883Z,98963.71
2018-06-20T05:24:40.218Z,98960.55
2018-06-20T05:27:08.621Z,98956.95
2018-06-20T05:29:36.950Z,98960.80
2018-06-20T05:32:05.261Z,98961.61
2018-06-20T05:34:33.642Z,98962.69
2018-06-20T05:37:02.082Z,98959.45
2018-06-20T05:39:30.417Z,98949.84
2018-06-20T05:41:58.765Z,98957.87
2018-06-20T05:44:27.158Z,98955.01
2018-06-20T05:46:55.523Z,98954.94
2018-06-20T05:49:23.822Z,98953.48
2018-06-20T05:51:52.146Z,98953.36
2018-06-20T05:54:20.535Z,98951.45
2018-06-20T05:56:48.902Z,98956.87
2018-06-20T05:59:17.218Z,98955.70
2018-06-20T06:01:45.493Z,98956.05
2018-06-20T06:04:13.841Z,98950.73
2018-06-20T06:06:42.133Z,98946.41
2018-06-20T06:09:10.401Z,98947.22
2018-06-20T06:11:38.777Z,98949.64
2018-06-20T06:14:07.104Z,98943.25
2018-06-20T06:16:35.438Z,98946.78
2018-06-20T06:19:03.811Z,98939.63
2018-06-20T06:21:32.135Z,98940.40
2018-06-20T06:24:00.509Z,98935.26
2018-06-20T06:26:28.867Z,98942.16
2018-06-20T06:28:57.210Z,98946.56
2018-06-20T06:31:25.600Z,98946.94
2018-06-20T06:33:53.992Z,98943.91
2018-06-20T06:36:22.406Z,98939.98
2018-06-20T06:38:50.713Z,98940.23
2018-06-20T06:41:19.054Z,98942.34
2018-06-20T06:43:47.425Z,98940.09
2018-06-20T06:46:15.746Z,98932.58
2018-06-20T06:48:44.117Z,98933.78
2018-06-20T06:51:12.417Z,98931.53
2018-06-20T06:53:40.736Z,98930.95
2018-06-20T06:56:09.070Z,98936.11
2018-06-20T06:58:37.450Z,98930.66
2018-06-20T07:01:05.874Z,98933.45
2018-06-20T07:03:34.194Z,98932.08
2018-06-20T07:06:02.567Z,98929.36
2018-06-20T07:08:30.927Z,98935.83
2018-06-20T07:10:59.274Z,98926.13
2018-06-20T07:13:27.778Z,98927.54
2018-06-20T07:15:56.106Z,98928.84
2018-06-20T07:18:24.462Z,98923.98
2018-06-20T07:20:52.886Z,98927.81
2018-06-20T07:23:21.180Z,98922.96
2018-06-20T07:25:49.621Z,98926.56
2018-06-20T07:28:17.946Z,98923.22
2018-06-20T07:30:46.242Z,98914.98
2018-06-20T07:33:14.612Z,98915.17
2018-06-20T07:35:43.024Z,98910.42
2018-06-20T07:38:11.182Z,98908.14
2018-06-20T07:40:39.602Z,98907.49
2018-06-20T07:43:07.881Z,98905.19
2018-06-20T07:45:36.321Z,98905.84
2018-06-20T07:48:04.666Z,98904.27
2018-06-20T07:50:33.052Z,98909.81
2018-06-20T07:53:01.374Z,98905.06
2018-06-20T07:55:36.115Z,98904.15
2018-06-20T07:58:04.462Z,98900.73
2018-06-20T08:00:38.250Z,98904.41
2018-06-20T08:03:19.246Z,98899.16
2018-06-20T08:05:52.936Z,98898.31
2018-06-20T08:08:26.517Z,98894.33
2018-06-20T08:11:00.107Z,98897.72
2018-06-20T08:13:33.762Z,98899.25
2018-06-20T08:16:07.524Z,98893.55
2018-06-20T08:18:41.169Z,98896.74
2018-06-20T08:21:09.540Z,98897.09
2018-06-20T08:23:37.902Z,98891.20
2018-06-20T08:26:06.252Z,98890.36
2018-06-20T08:28:34.614Z,98896.16
2018-06-20T08:31:02.978Z,98887.16
2018-06-20T08:33:31.268Z,98876.97
2018-06-20T08:35:59.580Z,98878.90
2018-06-20T08:38:27.897Z,98882.93
2018-06-20T08:40:56.225Z,98880.44
2018-06-20T08:43:24.553Z,98877.04
2018-06-20T08:45:55.812Z,98881.26
2018-06-20T08:48:24.162Z,98882.58
2018-06-20T08:50:52.468Z,98878.30
2018-06-20T08:53:20.857Z,98873.00
2018-06-20T08:55:49.329Z,98877.56
2018-06-20T08:58:17.761Z,98876.91
2018-06-20T09:00:51.423Z,98871.58
2018-06-20T09:03:19.772Z,98871.13
2018-06-20T09:05:53.451Z,98871.98
2018-06-20T09:08:26.964Z,98870.52
2018-06-20T09:11:00.672Z,98863.86
2018-06-20T09:13:34.277Z,98864.41
2018-06-20T09:16:07.819Z,98862.80
2018-06-20T09:18:41.544Z,98865.52
2018-06-20T09:21:09.929Z,98867.25
2018-06-20T09:23:38.354Z,98861.38
2018-06-20T09:26:06.688Z,98861.00
2018-06-20T09:28:34.956Z,98854.80
2018-06-20T09:31:03.357Z,98857.61
2018-06-20T09:33:31.732Z,98852.18
2018-06-20T09:36:00.081Z,98851.17
2018-06-20T09:38:28.399Z,98853.31
2018-06-20T09:40:56.710Z,98840.94
2018-06-20T09:43:25.058Z,98845.91
2018-06-20T09:45:53.412Z,98845.13
2018-06-20T09:48:21.844Z,98847.37
2018-06-20T09:50:57.466Z,98851.48
2018-06-20T09:53:25.840Z,98847.08
2018-06-20T09:55:54.341Z,98839.78
2018-06-20T09:58:22.753Z,98837.11
2018-06-20T10:00:56.549Z,98835.44
2018-06-20T10:03:30.098Z,98834.41
2018-06-20T10:06:03.597Z,98829.81
2018-06-20T10:08:37.354Z,98831.22
2018-06-20T10:11:11.162Z,98831.43
2018-06-20T10:13:46.485Z,98834.28
2018-06-20T10:16:16.742Z,98829.81
2018-06-20T10:18:45.196Z,98825.66
2018-06-20T10:21:13.576Z,98825.33
2018-06-20T10:23:42.022Z,98824.27
2018-06-20T10:26:10.423Z,98822.17
2018-06-20T10:28:38.819Z,98819.95
2018-06-20T10:31:07.101Z,98815.17
2018-06-20T10:33:35.520Z,98812.55
2018-06-20T10:36:03.912Z,98812.41
2018-06-20T10:38:32.307Z,98811.09
2018-06-20T10:41:00.659Z,98806.47
2018-06-20T10:43:28.979Z,98802.72
2018-06-20T10:46:02.650Z,98804.63
2018-06-20T10:48:30.909Z,98794.80
2018-06-20T10:50:59.252Z,98800.08
2018-06-20T10:53:27.659Z,98791.56
2018-06-20T10:55:56.038Z,98789.53
2018-06-20T10:58:29.705Z,98790.47
2018-06-20T11:01:03.372Z,98779.92
2018-06-20T11:03:37.099Z,98779.36
2018-06-20T11:06:30.938Z,98773.42
2018-06-20T11:09:06.117Z,98774.19
2018-06-20T11:11:39.782Z,98769.17
2018-06-20T11:14:08.550Z,98770.63
2018-06-20T11:16:36.953Z,98771.73
2018-06-20T11:19:05.305Z,98767.05
2018-06-20T11:21:33.716Z,98761.25
2018-06-20T11:24:02.094Z,98761.37
2018-06-20T11:26:30.429Z,98757.42
2018-06-20T11:28:58.917Z,98754.55
2018-06-20T11:31:27.284Z,98755.89
2018-06-20T11:33:55.697Z,98751.22
2018-06-20T11:36:24.045Z,98758.39
2018-06-20T11:38:52.349Z,98753.20
2018-06-20T11:41:20.692Z,98744.42
2018-06-20T11:43:49.111Z,98745.13
2018-06-20T11:46:22.707Z,98737.20
2018-06-20T11:48:51.043Z,98727.47
2018-06-20T11:51:19.364Z,98729.91
2018-06-20T11:53:47.751Z,98725.30
2018-06-20T11:56:16.048Z,98722.33
2018-06-20T11:58:49.737Z,98720.98
2018-06-20T12:01:23.396Z,98721.20
2018-06-20T12:03:57.160Z,98720.75
2018-06-20T12:06:30.829Z,98725.41
2018-06-20T12:09:04.568Z,98708.31
2018-06-20T12:11:37.997Z,98706.39
2018-06-20T12:14:11.737Z,98702.59
2018-06-20T12:16:40.076Z,98695.30
2018-06-20T12:19:13.677Z,98690.52
2018-06-20T12:21:47.478Z,98683.87
2018-06-20T12:24:21.212Z,98692.63
2018-06-20T12:26:54.933Z,98679.98
2018-06-20T12:29:28.573Z,98681.59
2018-06-20T12:32:02.188Z,98683.07
2018-06-20T12:34:35.851Z,98686.79
2018-06-20T12:37:09.618Z,98684.60
2018-06-20T12:39:37.133Z,98678.86
2018-06-20T12:42:11.026Z,98679.86
2018-06-20T12:44:44.696Z,98677.90
2018-06-20T12:47:17.800Z,98676.31
2018-06-20T12:49:56.621Z,98668.37
2018-06-20T12:52:25.011Z,98671.14
2018-06-20T12:54:53.387Z,98659.87
2018-06-20T12:57:21.721Z,98660.39
2018-06-20T12:59:50.072Z,98655.53
2018-06-20T13:02:18.435Z,98659.22
2018-06-20T13:04:46.755Z,98655.82
2018-06-20T13:07:15.034Z,98659.78
2018-06-20T13:09:43.380Z,98655.82
2018-06-20T13:12:11.847Z,98650.04
2018-06-20T13:14:40.268Z,98644.22
2018-06-20T13:17:08.749Z,98645.95
2018-06-20T13:19:37.189Z,98637.08
2018-06-20T13:22:05.520Z,98639.74
2018-06-20T13:24:33.951Z,98625.66
2018-06-20T13:27:02.296Z,98631.13
2018-06-20T13:29:30.628Z,98629.53
2018-06-20T13:34:12.710Z,98616.99
2018-06-20T13:36:46.524Z,98614.35
2018-06-20T13:40:21.887Z,98612.72
2018-06-20T13:42:55.596Z,98607.26
2018-06-20T13:45:29.329Z,98605.07
2018-06-20T13:48:03.066Z,98602.31
2018-06-20T13:50:31.525Z,98598.73
2018-06-20T13:52:59.886Z,98590.00
2018-06-20T13:55:28.280Z,98590.95
2018-06-20T13:57:56.708Z,98585.83
2018-06-20T14:00:25.157Z,98584.26
2018-06-20T14:02:53.505Z,98590.92
2018-06-20T14:05:21.882Z,98583.37
2018-06-20T14:07:50.407Z,98577.17
2018-06-20T14:10:18.787Z,98584.63
2018-06-20T14:12:47.193Z,98587.08
2018-06-20T14:15:15.607Z,98577.64
2018-06-20T14:17:43.908Z,98583.52
2018-06-20T14:20:17.504Z,98573.38
2018-06-20T14:22:45.861Z,98573.58
2018-06-20T14:25:14.163Z,98569.60
2018-06-20T14:27:42.528Z,98564.33
2018-06-20T14:30:10.925Z,98566.34
2018-06-20T14:32:44.595Z,98569.98
2018-06-20T14:35:18.407Z,98570.42
2018-06-20T14:37:52.214Z,98565.87
2018-06-20T14:40:25.802Z,98565.06
2018-06-20T14:42:59.425Z,98558.38
2018-06-20T14:45:33.028Z,98563.16
2018-06-20T14:48:01.488Z,98556.07
2018-06-20T14:50:29.952Z,98551.92
2018-06-20T14:52:58.376Z,98554.36
2018-06-20T14:55:26.884Z,98549.98
2018-06-20T14:57:55.363Z,98550.46
2018-06-20T15:00:23.860Z,98546.78
2018-06-20T15:03:53.720Z,98553.53
2018-06-20T15:06:22.043Z,98543.85
2018-06-20T15:08:50.619Z,98540.32
2018-06-20T15:11:19.179Z,98533.95
2018-06-20T15:13:47.533Z,98525.31
2018-06-20T15:16:21.247Z,98530.11
2018-06-20T15:18:49.828Z,98524.29
2018-06-20T15:21:19.033Z,98520.41
2018-06-20T15:23:47.452Z,98516.33
2018-06-20T15:26:21.162Z,98509.69
2018-06-20T15:28:54.657Z,98503.95
2018-06-20T15:31:29.285Z,98503.44
2018-06-20T15:34:03.239Z,98500.52
2018-06-20T15:36:37.208Z,98494.38
2018-06-20T15:39:07.699Z,98490.59
2018-06-20T15:41:36.069Z,98486.48
2018-06-20T15:44:05.081Z,98489.72
2018-06-20T15:46:33.597Z,98493.98
2018-06-20T15:49:01.947Z,98489.92
2018-06-20T15:51:30.397Z,98485.88
2018-06-20T15:53:58.788Z,98478.56
2018-06-20T15:56:27.520Z,98486.09
2018-06-20T15:58:56.037Z,98482.48
2018-06-20T16:01:24.424Z,98476.25
2018-06-20T16:03:52.768Z,98482.56
2018-06-20T16:06:21.233Z,98479.88
2018-06-20T16:08:55.031Z,98480.81
2018-06-20T16:11:23.389Z,98480.61
2018-06-20T16:13:51.872Z,98470.58
2018-06-20T16:16:20.394Z,98465.69
2018-06-20T16:18:54.069Z,98468.02
2018-06-20T16:21:27.797Z,98467.45
2018-06-20T16:24:01.554Z,98458.28
2018-06-20T16:26:35.322Z,98455.54
2018-06-20T16:29:09.052Z,98459.42
2018-06-20T16:31:37.477Z,98455.83
2018-06-20T16:34:05.841Z,98450.22
2018-06-20T16:36:34.311Z,98442.39
2018-06-20T16:39:02.682Z,98452.14
2018-06-20T16:41:31.030Z,98453.02
2018-06-20T16:43:59.296Z,98445.35
2018-06-20T16:46:27.658Z,98450.19
2018-06-20T16:48:56.124Z,98442.99
2018-06-20T16:51:24.439Z,98446.12
2018-06-20T16:53:52.817Z,98448.09
2018-06-20T16:56:21.221Z,98445.70
2018-06-20T16:58:49.796Z,98446.27
2018-06-20T17:01:23.253Z,98446.39
2018-06-20T17:03:51.706Z,98434.69
2018-06-20T17:06:20.148Z,98440.66
2018-06-20T17:08:48.750Z,98435.16
2018-06-20T17:11:17.160Z,98430.11
2018-06-20T17:13:50.933Z,98439.31
2018-06-20T17:16:24.698Z,98435.57
2018-06-20T17:18:58.516Z,98437.11
2018-06-20T17:22:30.062Z,98437.64
2018-06-20T17:25:03.729Z,98432.97
2018-06-20T17:27:32.317Z,98438.03
2018-06-20T17:30:00.928Z,98434.56
2018-06-20T17:32:29.394Z,98431.77
2018-06-20T17:34:57.998Z,98441.08
2018-06-20T17:37:26.546Z,98429.09
2018-06-20T17:39:55.470Z,98437.39
2018-06-20T17:42:24.008Z,98429.45
2018-06-20T17:44:52.509Z,98430.73
2018-06-20T17:47:20.857Z,98422.91
2018-06-20T17:49:49.485Z,98423.08
2018-06-20T17:52:18.012Z,98423.66
2018-06-20T17:54:46.665Z,98417.85
2018-06-20T17:57:15.073Z,98416.59
2018-06-20T17:59:43.429Z,98423.68
2018-06-20T18:02:11.870Z,98420.22
2018-06-20T18:04:45.509Z,98419.16
2018-06-20T18:07:19.319Z,98418.98
2018-06-20T18:09:53.106Z,98411.80
2018-06-20T18:12:26.831Z,98417.23
2018-06-20T18:15:00.549Z,98415.69
2018-06-20T18:17:29.011Z,98408.66
2018-06-20T18:19:57.505Z,98418.18
2018-06-20T18:22:25.789Z,98408.06
2018-06-20T18:24:54.247Z,98411.17
2018-06-20T18:27:22.513Z,98408.01
2018-06-20T18:29:50.887Z,98406.56
2018-06-20T18:32:19.188Z,98406.28
2018-06-20T18:34:48.195Z,98408.89
2018-06-20T18:37:16.553Z,98409.22
2018-06-20T18:39:50.280Z,98408.97
2018-06-20T18:42:18.654Z,98410.41
2018-06-20T18:44:47.028Z,98409.53
2018-06-20T18:47:20.845Z,98408.81
2018-06-20T18:49:49.299Z,98413.52
2018-06-20T18:52:18.116Z,98418.56
2018-06-20T18:54:46.670Z,98414.72
2018-06-20T18:57:21.458Z,98408.05
2018-06-20T18:59:55.236Z,98406.75
2018-06-20T19:02:29.524Z,98414.30
2018-06-20T19:05:03.345Z,98415.14
2018-06-20T19:07:37.206Z,98411.16
2018-06-20T19:10:05.709Z,98413.83
2018-06-20T19:12:34.167Z,98415.42
2018-06-20T19:15:02.663Z,98411.77
2018-06-20T19:17:31.417Z,98411.20
2018-06-20T19:20:00.673Z,98411.45
2018-06-20T19:22:29.000Z,98418.72
2018-06-20T19:24:57.356Z,98421.41
2018-06-20T19:27:25.735Z,98423.23
2018-06-20T19:29:55.034Z,98426.72
2018-06-20T19:32:23.550Z,98433.20
2018-06-20T19:34:51.859Z,98432.77
2018-06-20T19:37:20.195Z,98437.41
2018-06-20T19:39:52.562Z,98441.38
2018-06-20T19:42:22.866Z,98445.05
2018-06-20T19:44:51.374Z,98446.17
2018-06-20T19:47:19.709Z,98441.91
2018-06-20T19:49:48.094Z,98445.59
2018-06-20T19:52:16.414Z,98446.83
2018-06-20T19:54:44.836Z,98448.55
2018-06-20T19:57:13.327Z,98451.58
2018-06-20T19:59:41.789Z,98447.80
2018-06-20T20:02:10.602Z,98450.09
2018-06-20T20:04:38.917Z,98449.60
2018-06-20T20:07:07.315Z,98452.41
2018-06-20T20:09:36.038Z,98455.59
2018-06-20T20:12:04.532Z,98452.75
2018-06-20T20:14:33.123Z,98453.24
2018-06-20T20:17:01.580Z,98460.71
2018-06-20T20:19:30.117Z,98461.66
2018-06-20T20:21:58.436Z,98465.08
2018-06-20T20:24:27.289Z,98468.48
2018-06-20T20:26:55.678Z,98471.72
2018-06-20T20:29:24.112Z,98462.73
2018-06-20T20:31:52.420Z,98473.61
2018-06-20T20:34:20.882Z,98467.69
2018-06-20T20:36:49.254Z,98469.87
2018-06-20T20:39:17.992Z,98468.39
2018-06-20T20:41:46.672Z,98468.97
2018-06-20T20:44:15.057Z,98472.56
2018-06-20T20:46:43.405Z,98468.77
2018-06-20T20:49:11.828Z,98471.97
2018-06-20T20:51:40.583Z,98474.61
2018-06-20T20:54:09.041Z,98475.18
2018-06-20T20:56:37.665Z,98473.34
2018-06-20T20:59:06.077Z,98475.13
2018-06-20T21:01:34.692Z,98473.28
2018-06-20T21:04:02.977Z,98471.68
2018-06-20T21:06:31.364Z,98468.86
2018-06-20T21:08:59.968Z,98468.20
2018-06-20T21:11:32.500Z,98462.90
2018-06-20T21:14:01.776Z,98466.60
2018-06-20T21:16:30.324Z,98458.14
2018-06-20T21:18:59.180Z,98460.80
2018-06-20T21:21:27.941Z,98458.92
2018-06-20T21:23:56.311Z,98456.83
2018-06-20T21:26:24.701Z,98456.56
2018-06-20T21:28:53.058Z,98457.58
2018-06-20T21:31:21.715Z,98454.50
2018-06-20T21:33:50.061Z,98457.16
2018-06-20T21:36:21.629Z,98460.13
2018-06-20T21:38:51.303Z,98457.72
2018-06-20T21:41:20.978Z,98461.83
2018-06-20T21:43:49.471Z,98462.83
2018-06-20T21:46:17.807Z,98456.20
2018-06-20T21:48:46.793Z,98457.05
2018-06-20T21:51:17.527Z,98460.48
2018-06-20T21:53:47.375Z,98461.19
2018-06-20T21:56:15.849Z,98465.06
2018-06-20T21:58:44.314Z,98462.63
2018-06-20T22:01:16.739Z,98458.82
2018-06-20T22:03:45.249Z,98459.18
2018-06-20T22:06:13.585Z,98460.61
2018-06-20T22:08:42.062Z,98454.27
2018-06-20T22:11:10.373Z,98456.22
2018-06-20T22:13:38.862Z,98457.10
2018-06-20T22:16:07.382Z,98456.73
2018-06-20T22:18:35.737Z,98455.69
2018-06-20T22:21:04.104Z,98452.36
2018-06-20T22:23:32.574Z,98448.65
2018-06-20T22:26:00.957Z,98448.09
2018-06-20T22:28:29.270Z,98451.55
2018-06-20T22:30:57.567Z,98448.10
2018-06-20T22:33:26.515Z,98453.87
2018-06-20T22:35:54.938Z,98454.94
2018-06-20T22:38:23.334Z,98449.70
2018-06-20T22:40:51.922Z,98452.38
2018-06-20T22:43:20.320Z,98442.60
2018-06-20T22:45:49.325Z,98441.87
2018-06-20T22:48:17.793Z,98436.88
2018-06-20T22:50:46.231Z,98432.58
2018-06-20T22:53:14.654Z,98433.63
2018-06-20T22:55:43.340Z,98436.80
2018-06-20T22:58:11.832Z,98428.08
2018-06-20T23:00:40.316Z,98430.19
2018-06-20T23:03:08.732Z,98429.13
2018-06-20T23:05:37.108Z,98425.11
2018-06-20T23:14:06.778Z,98416.70
2018-06-20T23:16:35.236Z,98409.36
2018-06-20T23:19:03.962Z,98414.23
2018-06-20T23:21:32.351Z,98416.05
2018-06-20T23:24:00.980Z,98415.66
2018-06-20T23:26:29.494Z,98414.35
2018-06-20T23:28:58.487Z,98415.95
2018-06-20T23:31:26.914Z,98420.81
2018-06-20T23:33:55.411Z,98416.43
2018-06-20T23:36:24.219Z,98407.71
2018-06-20T23:38:52.669Z,98410.02
2018-06-20T23:41:21.071Z,98412.90
2018-06-20T23:43:49.425Z,98406.12
2018-06-20T23:46:17.986Z,98411.27
2018-06-20T23:48:46.467Z,98406.39
2018-06-20T23:51:15.050Z,98404.20
2018-06-20T23:53:43.444Z,98402.40
2018-06-20T23:56:11.855Z,98400.94
2018-06-20T23:58:40.364Z,98397.11
